Time;durP1;ratioP1;P1;durP2;ratioP2;P2;SDS_P1;SDS_P2;PMS_P1;PMS_P2;Temp;Humidity;BMP_temperature;BMP_pressure;BME280_temperature;BME280_humidity;BME280_pressure;Samples;Min_cycle;Max_cycle;Signal;HPM_P1;HPM_P2
2021/06/10 00:00:42;;;;;;;12.50;7.95;;;;;;;23.54;62.64;100595.09;5029414;28;20047;-67
2021/06/10 00:03:10;;;;;;;12.50;8.45;;;;;;;23.34;63.53;100598.56;5028802;28;20037;-67
2021/06/10 00:05:37;;;;;;;14.40;8.68;;;;;;;23.33;63.66;100593.22;5028465;28;20049;-67
2021/06/10 00:08:07;;;;;;;12.15;8.07;;;;;;;23.41;63.73;100594.69;5028963;28;20045;-67
2021/06/10 00:10:35;;;;;;;13.02;8.30;;;;;;;23.44;63.66;100593.66;5028452;28;20413;-67
2021/06/10 00:13:03;;;;;;;14.40;7.95;;;;;;;23.28;64.05;100600.63;5028707;28;20140;-67
2021/06/10 00:15:33;;;;;;;10.38;7.15;;;;;;;23.23;64.64;100595.41;5029225;28;20133;-66
2021/06/10 00:18:01;;;;;;;10.98;7.70;;;;;;;23.21;64.69;100596.41;5028912;28;20069;-66
2021/06/10 00:20:30;;;;;;;12.23;8.60;;;;;;;23.14;64.92;100595.75;5024132;28;20049;-66
2021/06/10 00:22:58;;;;;;;10.98;8.05;;;;;;;23.25;64.76;100596.22;5027641;28;20041;-68
2021/06/10 00:25:26;;;;;;;12.23;8.52;;;;;;;23.38;64.21;100604.69;5027989;28;20081;-66
2021/06/10 00:27:53;;;;;;;15.35;8.48;;;;;;;23.40;64.03;100608.22;5027782;28;20513;-66
2021/06/10 00:30:21;;;;;;;18.15;8.43;;;;;;;23.35;63.91;100610.22;5027998;28;20040;-67
2021/06/10 00:32:51;;;;;;;13.02;8.38;;;;;;;23.16;64.34;100620.84;5027950;28;20116;-66
2021/06/10 00:35:19;;;;;;;13.60;8.57;;;;;;;23.19;64.22;100609.94;5027992;28;20108;-66
2021/06/10 00:37:47;;;;;;;17.48;8.88;;;;;;;23.17;64.03;100613.63;5028494;28;20563;-67
2021/06/10 00:40:14;;;;;;;14.90;9.25;;;;;;;23.14;64.22;100620.00;5029446;28;20044;-66
2021/06/10 00:42:43;;;;;;;14.63;9.00;;;;;;;23.19;64.25;100620.69;5008484;28;20451;-67
2021/06/10 00:45:13;;;;;;;15.65;9.40;;;;;;;23.14;64.22;100622.69;5010895;28;20046;-67
2021/06/10 00:47:41;;;;;;;13.07;9.25;;;;;;;23.13;64.53;100617.38;5010902;28;20079;-67
2021/06/10 00:50:12;;;;;;;13.23;8.60;;;;;;;23.13;64.42;100622.75;5013104;28;20065;-66
2021/06/10 00:52:39;;;;;;;12.70;8.88;;;;;;;23.06;64.45;100619.41;5012030;28;20490;-66
2021/06/10 00:55:08;;;;;;;13.68;9.50;;;;;;;22.92;65.05;100610.97;5010997;28;20562;-66
2021/06/10 00:57:35;;;;;;;14.88;8.35;;;;;;;23.02;64.57;100610.59;5012231;28;20042;-66
2021/06/10 01:00:03;;;;;;;13.48;9.15;;;;;;;23.09;64.27;100616.63;5012152;28;20042;-66
2021/06/10 01:02:30;;;;;;;13.57;8.77;;;;;;;23.08;64.05;100604.09;5009139;28;20064;-66
2021/06/10 01:04:57;;;;;;;12.27;9.23;;;;;;;22.97;64.31;100599.09;5011565;28;20121;-67
2021/06/10 01:07:36;;;;;;;14.27;8.38;;;;;;;22.86;64.72;100598.63;5012108;28;20044;-67
2021/06/10 01:10:08;;;;;;;13.52;8.77;;;;;;;22.64;64.83;100585.03;5012143;28;20083;-66
2021/06/10 01:12:45;;;;;;;12.38;7.88;;;;;;;22.43;65.52;100580.47;5011885;28;20137;-66
2021/06/10 01:15:14;;;;;;;11.95;8.50;;;;;;;22.51;65.15;100583.72;5032498;28;20041;-66
2021/06/10 01:17:44;;;;;;;10.95;7.13;;;;;;;22.58;64.65;100573.63;5031560;28;20041;-66
2021/06/10 01:20:14;;;;;;;12.88;8.13;;;;;;;22.65;64.10;100575.16;5030365;28;20100;-66
2021/06/10 01:22:54;;;;;;;11.02;7.55;;;;;;;22.70;63.99;100578.59;5031247;28;20041;-66
2021/06/10 01:25:39;;;;;;;11.55;7.47;;;;;;;22.69;63.78;100574.13;5030462;28;20041;-66
2021/06/10 01:28:12;;;;;;;11.10;7.65;;;;;;;22.72;63.70;100586.56;5031381;28;21029;-66
2021/06/10 01:30:42;;;;;;;13.23;7.50;;;;;;;22.77;63.28;100590.03;5031336;28;20059;-67
2021/06/10 01:33:11;;;;;;;12.30;8.00;;;;;;;22.79;62.93;100588.13;5031569;28;20040;-66
2021/06/10 01:35:42;;;;;;;12.10;7.57;;;;;;;22.83;62.85;100585.28;5031405;28;20048;-66
2021/06/10 01:38:11;;;;;;;11.40;7.20;;;;;;;22.82;62.75;100580.84;5030726;28;20038;-67
2021/06/10 01:40:40;;;;;;;10.65;7.38;;;;;;;22.78;62.71;100581.88;5030737;28;20057;-67
2021/06/10 01:43:10;;;;;;;12.55;7.38;;;;;;;22.75;62.51;100573.06;5030709;28;20073;-66
2021/06/10 01:45:38;;;;;;;10.05;7.60;;;;;;;22.72;62.59;100571.31;5030876;28;20084;-66
2021/06/10 01:48:06;;;;;;;11.10;7.85;;;;;;;22.58;62.65;100569.13;5030160;28;20476;-67
2021/06/10 01:50:33;;;;;;;12.23;7.82;;;;;;;22.47;63.05;100565.97;5030825;28;20076;-66
2021/06/10 01:53:02;;;;;;;16.67;6.95;;;;;;;22.49;62.99;100560.53;5029300;28;20048;-66
2021/06/10 01:55:30;;;;;;;10.65;7.13;;;;;;;22.55;62.74;100563.00;5029986;28;20029;-67
2021/06/10 01:57:59;;;;;;;11.38;7.57;;;;;;;22.57;62.52;100562.00;5029669;28;20076;-67
2021/06/10 02:00:29;;;;;;;10.20;6.78;;;;;;;22.57;62.19;100558.44;5030805;28;20036;-67
2021/06/10 02:02:57;;;;;;;10.63;7.60;;;;;;;22.52;62.41;100553.22;5030849;28;20117;-66
2021/06/10 02:05:25;;;;;;;13.70;8.30;;;;;;;22.50;62.07;100548.84;5029188;28;20034;-67
2021/06/10 02:07:53;;;;;;;10.55;7.53;;;;;;;22.49;62.21;100557.84;5030833;28;20041;-66
2021/06/10 02:10:25;;;;;;;10.35;6.72;;;;;;;22.48;62.02;100561.47;5030387;28;20125;-66
2021/06/10 02:12:53;;;;;;;10.63;7.65;;;;;;;22.39;62.26;100556.41;5030683;28;20053;-66
2021/06/10 02:15:21;;;;;;;11.25;7.30;;;;;;;22.36;62.50;100557.41;5030147;28;20146;-66
2021/06/10 02:17:50;;;;;;;10.82;7.07;;;;;;;22.40;62.19;100563.53;5030724;28;20037;-67
2021/06/10 02:20:20;;;;;;;10.82;7.20;;;;;;;22.44;62.03;100562.50;5030481;28;20087;-66
2021/06/10 02:22:48;;;;;;;14.27;7.95;;;;;;;22.29;62.09;100577.38;5030522;28;20069;-66
2021/06/10 02:25:15;;;;;;;9.73;7.38;;;;;;;22.07;62.48;100574.56;5030402;28;20065;-66
2021/06/10 02:27:42;;;;;;;10.50;6.95;;;;;;;22.07;62.39;100577.25;5030459;28;20057;-67
2021/06/10 02:30:12;;;;;;;10.63;6.32;;;;;;;22.07;62.29;100582.63;5029414;28;20097;-67
2021/06/10 02:32:39;;;;;;;10.82;7.20;;;;;;;22.06;62.10;100575.50;5029431;28;20124;-66
2021/06/10 02:35:10;;;;;;;11.57;6.43;;;;;;;22.04;62.09;100582.75;5013983;28;20039;-66
2021/06/10 02:37:39;;;;;;;11.05;7.57;;;;;;;21.96;62.21;100583.94;5029115;28;20116;-66
2021/06/10 02:40:10;;;;;;;11.18;7.03;;;;;;;21.89;62.37;100588.59;5030249;28;20069;-66
2021/06/10 02:42:39;;;;;;;10.77;7.90;;;;;;;21.63;63.10;100581.41;5029841;28;20093;-67
2021/06/10 02:45:08;;;;;;;13.23;8.57;;;;;;;21.52;63.39;100588.06;5029978;28;20045;-66
2021/06/10 02:47:37;;;;;;;12.25;7.30;;;;;;;21.55;62.69;100587.94;5029519;28;20052;-66
2021/06/10 02:50:05;;;;;;;11.38;7.32;;;;;;;21.63;62.32;100580.53;5030043;28;20045;-67
2021/06/10 02:52:36;;;;;;;10.93;7.07;;;;;;;21.71;62.04;100583.84;5029939;28;20061;-66
2021/06/10 02:55:05;;;;;;;11.90;7.13;;;;;;;21.74;61.67;100581.03;5027558;28;20561;-67
2021/06/10 02:57:33;;;;;;;11.27;7.78;;;;;;;21.63;62.10;100583.22;5029389;28;20061;-66
2021/06/10 03:00:01;;;;;;;14.30;7.25;;;;;;;21.56;62.21;100576.28;5029844;28;20448;-66
2021/06/10 03:02:29;;;;;;;14.45;7.63;;;;;;;21.59;62.36;100586.94;5029632;28;20047;-67
2021/06/10 03:04:57;;;;;;;9.75;6.68;;;;;;;21.57;62.01;100594.16;5029462;28;20125;-67
2021/06/10 03:07:24;;;;;;;11.52;6.93;;;;;;;21.52;62.24;100590.75;5029380;28;20045;-66
2021/06/10 03:09:54;;;;;;;10.95;7.25;;;;;;;21.42;62.47;100579.41;5028132;28;20034;-66
2021/06/10 03:12:22;;;;;;;9.75;6.65;;;;;;;21.45;62.13;100584.69;5029762;28;20049;-66
2021/06/10 03:14:51;;;;;;;13.13;7.25;;;;;;;21.51;62.19;100589.00;5029484;28;20113;-66
2021/06/10 03:17:19;;;;;;;11.55;6.57;;;;;;;21.53;62.23;100595.19;5029115;28;20053;-66
2021/06/10 03:19:47;;;;;;;10.60;6.72;;;;;;;21.61;61.93;100599.38;5030117;28;20033;-66
2021/06/10 03:22:14;;;;;;;11.95;6.45;;;;;;;21.54;62.28;100588.88;5027958;28;20041;-66
2021/06/10 03:24:43;;;;;;;8.80;6.15;;;;;;;21.57;61.92;100594.16;5029171;28;20124;-67
2021/06/10 03:27:14;;;;;;;11.55;6.57;;;;;;;21.66;61.93;100594.72;5025657;28;20512;-67
2021/06/10 03:29:41;;;;;;;12.25;6.20;;;;;;;21.76;61.72;100598.00;5029077;28;20030;-66
2021/06/10 03:32:09;;;;;;;10.32;6.38;;;;;;;21.85;61.67;100600.41;5029456;28;20045;-67
2021/06/10 03:34:38;;;;;;;10.57;6.18;;;;;;;21.96;61.44;100605.44;5029076;28;20124;-67
2021/06/10 03:37:06;;;;;;;9.30;5.80;;;;;;;21.98;61.48;100599.09;5009539;28;20161;-67
2021/06/10 03:39:33;;;;;;;9.70;5.68;;;;;;;22.04;61.37;100604.25;5021287;28;20040;-67
2021/06/10 03:42:01;;;;;;;21.33;6.30;;;;;;;22.10;61.34;100606.75;5028733;28;20033;-67
2021/06/10 03:44:31;;;;;;;9.38;5.75;;;;;;;22.25;61.23;100608.88;5029190;28;20056;-67
2021/06/10 03:46:59;;;;;;;9.45;5.80;;;;;;;22.42;60.87;100604.72;5024366;28;20402;-67
2021/06/10 03:49:26;;;;;;;7.45;5.75;;;;;;;22.59;60.63;100607.69;5029249;28;20501;-67
2021/06/10 03:51:54;;;;;;;8.63;6.20;;;;;;;22.75;60.43;100617.00;5028648;28;20061;-67
2021/06/10 03:54:22;;;;;;;12.85;6.13;;;;;;;22.94;60.03;100610.00;5015334;28;20048;-66
2021/06/10 03:56:50;;;;;;;12.90;6.70;;;;;;;23.07;59.85;100615.78;5028359;28;20040;-67
2021/06/10 03:59:17;;;;;;;9.65;5.60;;;;;;;23.14;59.52;100611.03;5029097;28;20037;-67
2021/06/10 04:01:46;;;;;;;13.45;5.95;;;;;;;23.28;59.50;100612.28;5028247;28;20555;-67
2021/06/10 04:04:13;;;;;;;17.58;6.32;;;;;;;23.44;59.36;100610.72;5028396;28;20046;-67
2021/06/10 04:06:40;;;;;;;8.80;5.53;;;;;;;23.66;58.99;100612.59;5029181;28;20061;-67
2021/06/10 04:09:08;;;;;;;11.00;6.70;;;;;;;23.89;58.60;100606.25;5028996;28;20048;-67
2021/06/10 04:11:35;;;;;;;9.43;5.80;;;;;;;23.99;57.82;100605.81;5028429;28;20038;-66
2021/06/10 04:14:03;;;;;;;9.50;5.50;;;;;;;24.02;57.43;100604.81;5029477;28;20045;-67
2021/06/10 04:16:30;;;;;;;12.05;5.63;;;;;;;24.14;57.46;100613.25;5028824;28;20034;-67
2021/06/10 04:18:59;;;;;;;6.70;4.35;;;;;;;24.27;56.74;100608.25;5030543;28;20041;-67
2021/06/10 04:21:26;;;;;;;8.75;4.88;;;;;;;24.35;57.02;100614.16;5032596;28;20044;-66
2021/06/10 04:23:54;;;;;;;8.88;4.95;;;;;;;24.61;56.49;100616.59;5031038;28;20121;-67
2021/06/10 04:26:21;;;;;;;11.05;4.78;;;;;;;24.86;56.02;100621.78;5032239;28;20033;-67
2021/06/10 04:28:49;;;;;;;8.05;4.80;;;;;;;24.94;55.23;100625.00;5033128;28;20052;-67
2021/06/10 04:31:18;;;;;;;8.55;4.60;;;;;;;24.96;55.33;100622.25;5032683;28;20040;-67
2021/06/10 04:33:46;;;;;;;6.75;4.15;;;;;;;25.12;55.28;100626.00;5032199;28;20038;-67
2021/06/10 04:36:15;;;;;;;7.38;4.82;;;;;;;25.47;54.85;100629.72;5032586;28;20400;-67
2021/06/10 04:38:42;;;;;;;6.10;4.45;;;;;;;25.65;54.36;100631.59;5033027;28;20087;-67
2021/06/10 04:41:10;;;;;;;8.10;4.00;;;;;;;25.83;53.80;100631.63;5031649;28;20041;-68
2021/06/10 04:43:37;;;;;;;8.02;4.75;;;;;;;25.93;53.20;100641.06;5032568;28;20118;-67
2021/06/10 04:46:05;;;;;;;8.95;5.10;;;;;;;25.78;53.25;100631.88;5032044;28;20100;-68
2021/06/10 04:48:32;;;;;;;7.57;4.70;;;;;;;25.64;53.81;100637.06;5032014;28;20116;-68
2021/06/10 04:50:59;;;;;;;7.65;4.55;;;;;;;26.01;53.03;100628.88;5032043;28;20033;-67
2021/06/10 04:53:28;;;;;;;8.35;4.22;;;;;;;26.33;51.93;100635.41;5031882;28;20040;-67
2021/06/10 04:55:55;;;;;;;8.02;4.60;;;;;;;26.04;52.04;100626.03;5032007;28;20275;-67
2021/06/10 04:58:22;;;;;;;6.70;4.50;;;;;;;26.08;52.24;100635.75;5031514;28;20041;-67
2021/06/10 05:00:49;;;;;;;7.22;4.35;;;;;;;26.30;51.65;100634.69;5030856;28;20033;-67
2021/06/10 05:03:21;;;;;;;6.88;4.47;;;;;;;26.31;51.34;100637.34;5032789;28;20401;-67
2021/06/10 05:05:48;;;;;;;8.18;3.70;;;;;;;26.92;50.23;100632.28;5012459;28;20049;-68
2021/06/10 05:08:16;;;;;;;9.15;4.88;;;;;;;27.22;49.45;100637.00;5032076;28;20046;-68
2021/06/10 05:10:44;;;;;;;7.65;4.45;;;;;;;27.14;49.33;100639.25;5030916;28;20081;-67
2021/06/10 05:13:11;;;;;;;6.97;4.20;;;;;;;27.04;49.02;100644.31;5032131;28;20033;-67
2021/06/10 05:15:39;;;;;;;8.13;4.18;;;;;;;26.62;49.74;100646.56;5031428;28;20080;-67
2021/06/10 05:18:06;;;;;;;8.25;4.32;;;;;;;26.73;49.63;100639.59;5031954;28;20505;-67
2021/06/10 05:20:33;;;;;;;8.73;4.82;;;;;;;26.65;49.22;100649.13;5031676;28;20034;-67
2021/06/10 05:23:00;;;;;;;5.55;4.22;;;;;;;26.57;49.17;100649.50;5031745;28;20033;-67
2021/06/10 05:25:27;;;;;;;5.68;3.97;;;;;;;27.27;48.15;100643.91;5030240;28;20045;-67
2021/06/10 05:27:56;;;;;;;8.77;4.55;;;;;;;28.07;46.40;100662.00;5031436;28;20046;-67
2021/06/10 05:30:23;;;;;;;7.55;3.97;;;;;;;27.59;47.08;100650.28;5025878;28;20038;-67
2021/06/10 05:32:50;;;;;;;7.20;3.72;;;;;;;27.84;46.77;100648.84;5028838;28;20037;-67
2021/06/10 05:35:17;;;;;;;7.05;3.60;;;;;;;28.35;45.83;100658.56;5030283;28;20033;-67
2021/06/10 05:37:45;;;;;;;6.70;3.53;;;;;;;28.32;44.96;100653.28;5008568;28;20116;-67
2021/06/10 05:40:13;;;;;;;7.40;3.97;;;;;;;29.02;43.61;100662.59;5027621;28;20083;-67
2021/06/10 05:42:40;;;;;;;5.20;3.55;;;;;;;29.53;42.53;100662.06;5029333;28;20033;-67
2021/06/10 05:45:10;;;;;;;7.20;3.42;;;;;;;30.01;42.15;100657.09;5031593;28;20136;-67
2021/06/10 05:47:37;;;;;;;6.50;3.83;;;;;;;29.95;41.70;100665.69;5028881;28;20041;-68
2021/06/10 05:50:08;;;;;;;10.23;3.92;;;;;;;30.14;41.25;100668.03;5016513;28;20038;-67
2021/06/10 05:52:36;;;;;;;5.35;3.03;;;;;;;30.37;40.66;100657.34;5011513;28;20129;-67
2021/06/10 05:55:03;;;;;;;5.40;2.92;;;;;;;30.76;39.51;100678.28;5024384;28;20042;-67
2021/06/10 05:57:31;;;;;;;6.00;2.95;;;;;;;31.11;38.79;100672.25;5025543;28;20044;-67
2021/06/10 05:59:58;;;;;;;7.20;3.25;;;;;;;31.38;38.25;100680.28;4995686;28;20053;-67
2021/06/10 06:02:26;;;;;;;6.00;3.00;;;;;;;31.63;37.80;100672.97;5011661;28;20121;-67
2021/06/10 06:04:53;;;;;;;4.75;2.65;;;;;;;31.76;37.97;100680.25;5030795;28;20038;-68
2021/06/10 06:07:20;;;;;;;5.78;2.70;;;;;;;31.98;37.57;100680.38;5016254;28;20049;-67
2021/06/10 06:09:47;;;;;;;6.47;3.03;;;;;;;31.95;37.05;100678.78;5013857;28;20034;-67
2021/06/10 06:12:15;;;;;;;4.47;2.80;;;;;;;32.01;37.00;100683.78;5024507;28;20128;-68
2021/06/10 06:14:44;;;;;;;2.88;2.42;;;;;;;31.83;37.06;100676.09;5031118;28;20052;-67
2021/06/10 06:17:15;;;;;;;6.43;2.85;;;;;;;32.00;36.49;100672.97;5010877;28;20133;-67
2021/06/10 06:19:44;;;;;;;6.72;3.25;;;;;;;32.10;36.54;100682.19;5024625;28;20060;-67
2021/06/10 06:22:11;;;;;;;4.97;2.70;;;;;;;32.21;36.51;100685.03;5010926;28;20045;-67
2021/06/10 06:24:39;;;;;;;4.88;2.95;;;;;;;32.50;36.20;100685.53;5026416;28;20159;-68
2021/06/10 06:27:07;;;;;;;5.40;2.78;;;;;;;32.68;35.34;100686.03;5030985;28;20042;-67
2021/06/10 06:29:34;;;;;;;5.93;2.80;;;;;;;32.59;35.05;100678.50;5018148;28;20115;-68
2021/06/10 06:32:02;;;;;;;4.88;2.53;;;;;;;32.47;34.59;100688.53;5021198;28;20034;-67
2021/06/10 06:34:29;;;;;;;8.48;2.50;;;;;;;32.45;35.14;100690.50;5026428;28;20042;-67
2021/06/10 06:36:57;;;;;;;4.85;2.50;;;;;;;32.44;34.65;100677.81;5026473;28;20107;-68
2021/06/10 06:39:25;;;;;;;6.28;2.70;;;;;;;32.47;34.79;100676.72;5022039;28;20060;-68
2021/06/10 06:41:52;;;;;;;7.80;2.50;;;;;;;32.45;34.14;100677.69;5024885;28;20048;-68
2021/06/10 06:44:20;;;;;;;4.72;2.30;;;;;;;32.49;34.06;100663.81;5030147;28;20041;-68
2021/06/10 06:46:47;;;;;;;5.75;2.60;;;;;;;32.51;34.60;100670.88;5026168;28;20033;-68
2021/06/10 06:49:14;;;;;;;3.83;2.17;;;;;;;32.58;34.20;100665.81;5020848;28;20048;-67
2021/06/10 06:51:41;;;;;;;5.65;2.63;;;;;;;32.73;33.38;100668.25;5025955;28;20045;-68
2021/06/10 06:54:09;;;;;;;5.07;2.65;;;;;;;32.55;32.59;100664.19;5022443;28;20044;-67
2021/06/10 06:56:36;;;;;;;5.25;2.15;;;;;;;32.20;33.05;100658.69;5021280;28;20041;-68
2021/06/10 06:59:04;;;;;;;6.60;2.70;;;;;;;32.41;32.94;100662.53;5018462;28;20123;-68
2021/06/10 07:01:31;;;;;;;3.35;2.42;;;;;;;32.30;33.11;100659.72;5020358;28;20029;-69
2021/06/10 07:03:58;;;;;;;4.53;2.53;;;;;;;32.41;33.51;100668.00;5014747;28;20530;-69
2021/06/10 07:06:25;;;;;;;5.00;2.50;;;;;;;32.63;33.48;100669.91;5018187;28;20042;-68
2021/06/10 07:08:52;;;;;;;3.45;2.53;;;;;;;32.94;33.36;100660.22;5017909;28;20037;-68
2021/06/10 07:11:21;;;;;;;4.78;2.45;;;;;;;33.09;32.97;100664.47;5024109;28;20132;-69
2021/06/10 07:13:47;;;;;;;6.00;2.65;;;;;;;33.31;32.82;100665.50;5008937;28;20567;-67
2021/06/10 07:16:15;;;;;;;3.92;2.40;;;;;;;33.50;32.66;100661.16;5004896;28;20042;-68
2021/06/10 07:18:42;;;;;;;5.20;2.40;;;;;;;33.58;32.98;100657.78;5020993;28;20556;-69
2021/06/10 07:21:09;;;;;;;6.15;2.40;;;;;;;33.68;32.18;100666.09;5026976;28;20071;-68
2021/06/10 07:23:36;;;;;;;4.60;2.40;;;;;;;33.42;32.22;100669.13;5028465;28;20041;-69
2021/06/10 07:26:03;;;;;;;4.50;2.47;;;;;;;33.51;32.25;100662.91;5027954;28;20464;-68
2021/06/10 07:28:32;;;;;;;6.32;2.50;;;;;;;33.66;32.27;100669.00;5028633;28;20048;-68
2021/06/10 07:30:59;;;;;;;4.93;2.65;;;;;;;33.41;31.71;100677.47;5029714;28;20041;-69
2021/06/10 07:33:26;;;;;;;4.57;2.67;;;;;;;32.78;33.01;100681.56;5028575;28;20501;-69
2021/06/10 07:35:53;;;;;;;5.13;2.80;;;;;;;32.81;33.69;100676.75;5027896;28;20561;-68
2021/06/10 07:38:20;;;;;;;4.72;2.83;;;;;;;32.95;33.76;100672.06;5030314;28;20488;-69
2021/06/10 07:40:47;;;;;;;7.43;2.55;;;;;;;33.25;33.82;100672.34;5029896;28;20260;-69
2021/06/10 07:43:14;;;;;;;5.13;2.92;;;;;;;33.30;33.57;100680.19;5029328;28;20038;-68
2021/06/10 07:45:42;;;;;;;4.82;2.65;;;;;;;33.39;34.17;100687.66;5029394;28;20085;-69
2021/06/10 07:48:09;;;;;;;4.15;2.80;;;;;;;33.56;33.77;100682.56;5029281;28;20049;-69
2021/06/10 07:50:37;;;;;;;8.75;3.10;;;;;;;33.79;34.10;100680.72;5029253;28;20043;-69
2021/06/10 07:53:04;;;;;;;6.57;2.67;;;;;;;33.57;35.02;100694.38;5029283;28;20048;-69
2021/06/10 07:55:31;;;;;;;5.57;2.80;;;;;;;33.32;35.54;100691.91;5029541;28;20092;-68
2021/06/10 07:58:00;;;;;;;7.45;3.20;;;;;;;33.44;35.79;100685.44;5029021;28;20056;-69
2021/06/10 08:00:27;;;;;;;5.85;2.83;;;;;;;33.61;35.65;100688.53;5029042;28;20106;-68
2021/06/10 08:02:58;;;;;;;5.35;3.00;;;;;;;33.73;34.74;100696.78;5029151;28;20042;-69
2021/06/10 08:05:26;;;;;;;6.72;3.08;;;;;;;33.93;34.93;100693.28;5029289;28;20037;-69
2021/06/10 08:07:54;;;;;;;5.95;2.70;;;;;;;33.70;34.64;100688.78;5029485;28;20036;-69
2021/06/10 08:10:22;;;;;;;8.75;2.75;;;;;;;33.38;35.43;100702.34;5029082;28;20052;-68
2021/06/10 08:12:49;;;;;;;7.22;3.05;;;;;;;33.37;35.25;100704.22;5029975;28;20675;-69
2021/06/10 08:15:17;;;;;;;4.85;2.70;;;;;;;33.51;35.64;100716.78;5028728;28;20135;-68
2021/06/10 08:17:44;;;;;;;5.57;3.13;;;;;;;33.68;35.05;100719.03;5028623;28;20045;-68
2021/06/10 08:20:15;;;;;;;5.28;2.80;;;;;;;33.85;34.69;100726.78;5029038;28;20116;-68
2021/06/10 08:22:42;;;;;;;3.88;2.78;;;;;;;33.82;34.35;100726.16;5028957;28;20049;-68
2021/06/10 08:25:10;;;;;;;5.80;3.03;;;;;;;33.51;34.74;100722.28;5028967;28;20041;-68
2021/06/10 08:27:38;;;;;;;5.00;2.83;;;;;;;33.67;35.12;100720.06;5029224;28;20045;-69
2021/06/10 08:30:07;;;;;;;6.82;3.10;;;;;;;33.82;35.55;100716.06;5028941;28;20052;-68
2021/06/10 08:32:34;;;;;;;7.60;2.95;;;;;;;33.91;34.96;100707.09;5028839;28;20044;-69
2021/06/10 08:35:01;;;;;;;6.55;2.80;;;;;;;33.95;34.82;100724.13;5028995;28;20039;-69
2021/06/10 08:37:31;;;;;;;4.57;2.72;;;;;;;34.02;34.74;100717.16;5028883;28;20044;-69
2021/06/10 08:39:58;;;;;;;7.07;3.33;;;;;;;34.10;34.78;100711.03;5028790;28;20040;-69
2021/06/10 08:42:25;;;;;;;5.65;3.35;;;;;;;33.95;34.75;100714.06;5028743;28;20037;-69
2021/06/10 08:44:53;;;;;;;7.35;2.83;;;;;;;33.89;35.12;100703.59;5029075;28;20046;-69
2021/06/10 08:47:21;;;;;;;11.27;4.10;;;;;;;34.04;34.64;100706.94;5027633;28;20041;-69
2021/06/10 08:49:49;;;;;;;5.95;3.28;;;;;;;34.12;34.86;100715.41;5028239;28;20045;-69
2021/06/10 08:52:17;;;;;;;8.13;3.33;;;;;;;34.29;34.82;100714.00;5027978;28;20037;-69
2021/06/10 08:54:45;;;;;;;4.65;3.08;;;;;;;34.21;34.51;100713.75;5028459;28;20117;-69
2021/06/10 08:57:12;;;;;;;7.35;3.10;;;;;;;34.13;34.69;100711.66;5028378;28;20045;-68
2021/06/10 08:59:39;;;;;;;6.53;3.50;;;;;;;34.22;34.13;100707.28;5028648;28;20041;-68
2021/06/10 09:02:06;;;;;;;7.07;3.42;;;;;;;34.32;33.86;100700.94;5028578;28;20049;-69
2021/06/10 09:04:33;;;;;;;5.00;3.30;;;;;;;34.24;34.12;100706.19;5028454;28;20041;-69
2021/06/10 09:07:03;;;;;;;7.70;3.13;;;;;;;34.38;34.18;100708.63;5032113;28;20038;-69
2021/06/10 09:09:35;;;;;;;5.43;3.30;;;;;;;34.50;34.15;100717.69;5031559;28;20532;-69
2021/06/10 09:12:06;;;;;;;5.82;3.53;;;;;;;34.21;34.62;100713.75;5032303;28;20045;-68
2021/06/10 09:14:51;;;;;;;7.63;3.47;;;;;;;34.15;34.74;100715.13;5032230;28;20041;-68
2021/06/10 09:17:32;;;;;;;8.60;3.72;;;;;;;34.05;35.39;100710.56;5032221;28;20037;-68
2021/06/10 09:20:00;;;;;;;7.13;4.07;;;;;;;34.16;35.18;100708.66;5030766;28;20055;-69
2021/06/10 09:22:28;;;;;;;7.03;3.20;;;;;;;34.18;35.23;100724.97;5031990;28;20033;-69
2021/06/10 09:25:06;;;;;;;4.68;3.55;;;;;;;34.24;35.52;100716.28;5032234;28;20041;-68
2021/06/10 09:27:35;;;;;;;7.38;3.70;;;;;;;33.82;35.72;100715.19;5031678;28;20033;-69
2021/06/10 09:30:02;;;;;;;6.28;3.53;;;;;;;33.47;36.59;100721.66;5031769;28;20041;-68
2021/06/10 09:32:30;;;;;;;6.93;3.80;;;;;;;33.47;36.39;100718.94;5030402;28;20057;-69
2021/06/10 09:35:00;;;;;;;8.07;4.28;;;;;;;33.00;37.15;100732.75;5030313;28;20421;-68
2021/06/10 09:37:34;;;;;;;5.85;4.00;;;;;;;32.63;37.68;100721.88;5031095;28;20721;-68
2021/06/10 09:40:06;;;;;;;6.43;3.25;;;;;;;32.48;38.09;100741.34;5031537;28;20051;-68
2021/06/10 09:42:39;;;;;;;8.50;3.97;;;;;;;32.65;38.29;100733.56;5011657;28;20029;-68
2021/06/10 09:45:09;;;;;;;7.20;3.97;;;;;;;32.87;37.45;100735.56;5013194;28;20042;-68
2021/06/10 09:47:40;;;;;;;6.68;3.88;;;;;;;33.04;37.16;100736.97;5031325;28;20038;-68
2021/06/10 09:50:18;;;;;;;7.85;3.63;;;;;;;33.18;37.28;100731.28;5029898;28;20107;-69
2021/06/10 09:52:47;;;;;;;10.55;4.40;;;;;;;33.35;37.03;100738.19;5030704;28;20128;-68
2021/06/10 09:55:52;;;;;;;5.63;3.58;;;;;;;33.28;36.77;100734.22;5027622;28;20137;-68
2021/06/10 09:58:24;;;;;;;;;;;;;;;32.96;37.24;100737.56;4990852;28;20068;-67
2021/06/10 10:00:59;;;;;;;8.30;3.85;;;;;;;32.94;37.02;100741.44;4997843;28;19925;-67
2021/06/10 10:03:32;;;;;;;5.43;3.38;;;;;;;32.94;36.94;100739.56;5008553;28;20073;-68
2021/06/10 10:06:04;;;;;;;7.32;4.13;;;;;;;33.05;36.95;100736.84;5011193;28;20037;-68
2021/06/10 10:08:33;;;;;;;6.70;3.53;;;;;;;33.08;36.21;100736.59;5011318;28;20494;-67
2021/06/10 10:11:02;;;;;;;5.90;3.60;;;;;;;33.13;36.56;100737.13;5010357;28;20045;-69
2021/06/10 10:13:31;;;;;;;9.27;3.80;;;;;;;32.86;36.49;100739.28;5010995;28;20030;-67
2021/06/10 10:15:59;;;;;;;5.28;3.35;;;;;;;32.86;36.58;100730.22;5010670;28;20560;-68
2021/06/10 10:18:26;;;;;;;7.85;3.47;;;;;;;32.92;36.06;100730.59;5006953;28;20054;-69
2021/06/10 10:20:53;;;;;;;6.40;3.38;;;;;;;32.78;36.26;100725.34;5007881;28;20092;-69
2021/06/10 10:23:23;;;;;;;6.50;3.13;;;;;;;32.54;36.16;100724.47;5009763;28;20549;-69
2021/06/10 10:25:53;;;;;;;6.10;3.00;;;;;;;32.66;35.56;100729.84;5029947;28;20040;-69
2021/06/10 10:28:21;;;;;;;9.15;3.20;;;;;;;32.63;34.98;100737.41;5026889;28;20125;-69
2021/06/10 10:30:50;;;;;;;4.75;3.30;;;;;;;32.63;35.62;100730.06;5029284;28;20065;-68
2021/06/10 10:33:19;;;;;;;8.50;3.35;;;;;;;32.82;35.78;100735.06;5008914;28;20608;-69
2021/06/10 10:35:51;;;;;;;9.13;3.50;;;;;;;33.08;35.14;100733.84;5008140;28;20046;-69
2021/06/10 10:38:21;;;;;;;6.55;3.25;;;;;;;33.21;34.60;100742.88;5029382;28;20112;-69
2021/06/10 10:40:57;;;;;;;8.73;3.08;;;;;;;33.46;34.48;100740.94;5030320;28;20037;-69
2021/06/10 10:43:25;;;;;;;5.30;3.60;;;;;;;33.42;34.12;100734.81;5029730;28;20063;-67
2021/06/10 10:46:06;;;;;;;7.35;3.58;;;;;;;32.98;34.65;100735.59;5029961;28;20049;-68
2021/06/10 10:48:36;;;;;;;5.88;2.90;;;;;;;32.62;35.49;100722.91;5030486;28;20044;-69
2021/06/10 10:51:22;;;;;;;7.32;3.45;;;;;;;32.67;35.10;100723.44;5030397;28;20049;-68
2021/06/10 10:53:54;;;;;;;6.00;3.33;;;;;;;32.70;34.41;100728.66;5029686;28;20040;-69
2021/06/10 10:56:33;;;;;;;5.13;3.15;;;;;;;32.68;33.59;100721.56;5029632;28;20402;-68
2021/06/10 10:59:11;;;;;;;6.28;2.95;;;;;;;32.66;33.49;100721.66;5030029;28;20486;-68
2021/06/10 11:01:41;;;;;;;5.93;2.53;;;;;;;32.67;33.41;100722.56;5029887;28;20040;-68
2021/06/10 11:04:08;;;;;;;5.15;2.80;;;;;;;32.71;32.84;100718.59;5009665;28;20557;-69
2021/06/10 11:06:37;;;;;;;4.40;3.03;;;;;;;32.96;33.07;100717.53;5010071;28;20449;-68
2021/06/10 11:09:12;;;;;;;6.03;3.10;;;;;;;32.71;32.80;100711.25;5016337;28;20126;-68
2021/06/10 11:11:54;;;;;;;4.25;2.83;;;;;;;32.22;33.75;100711.38;5030039;28;20084;-68
2021/06/10 11:14:45;;;;;;;5.40;2.88;;;;;;;32.26;33.92;100712.88;5029506;28;20121;-68
2021/06/10 11:17:26;;;;;;;5.30;3.42;;;;;;;32.82;33.76;100710.44;5028802;28;20464;-69
2021/06/10 11:19:59;;;;;;;4.53;2.83;;;;;;;33.17;33.17;100703.03;5027667;28;20128;-68
2021/06/10 11:22:33;;;;;;;4.28;2.60;;;;;;;33.39;32.99;100704.97;5023588;28;20037;-68
2021/06/10 11:25:02;;;;;;;5.80;2.83;;;;;;;33.55;32.58;100707.31;5020938;28;20044;-68
2021/06/10 11:27:35;;;;;;;7.35;3.50;;;;;;;33.62;33.34;100709.44;5025674;28;20067;-69
2021/06/10 11:30:26;;;;;;;9.03;4.57;;;;;;;34.07;32.62;100703.94;5027838;28;20121;-70